Time;durP1;ratioP1;P1;durP2;ratioP2;P2;SDS_P1;SDS_P2;PMS_P1;PMS_P2;Temp;Humidity;BMP_temperature;BMP_pressure;BME280_temperature;BME280_humidity;BME280_pressure;Samples;Min_cycle;Max_cycle;Signal;HPM_P1;HPM_P2
2022/03/03 00:01:35;;;;;;;1.15;0.30;;;;;;;;;;4124378;28;20058;-57
2022/03/03 00:03:36;;;;;;;0.93;0.40;;;;;;;;;;4128666;28;20058;-58
2022/03/03 00:05:37;;;;;;;0.68;0.30;;;;;;;;;;4130331;28;20062;-58
2022/03/03 00:07:38;;;;;;;0.70;0.20;;;;;;;;;;4112826;28;20063;-58
2022/03/03 00:09:40;;;;;;;0.40;0.32;;;;;;;;;;4130028;28;20058;-58
2022/03/03 00:11:41;;;;;;;0.90;0.40;;;;;;;;;;4130504;28;20062;-57
2022/03/03 00:13:42;;;;;;;0.60;0.20;;;;;;;;;;4128977;28;20059;-57
2022/03/03 00:15:43;;;;;;;0.20;0.20;;;;;;;;;;4130390;28;20066;-57
2022/03/03 00:17:44;;;;;;;0.25;0.25;;;;;;;;;;4112409;28;20114;-56
2022/03/03 00:19:45;;;;;;;0.60;0.40;;;;;;;;;;4130284;28;20062;-58
2022/03/03 00:21:46;;;;;;;0.20;0.20;;;;;;;;;;4129939;28;20101;-58
2022/03/03 00:23:48;;;;;;;0.40;0.30;;;;;;;;;;4130021;28;20442;-56
2022/03/03 00:25:49;;;;;;;0.28;0.20;;;;;;;;;;4130107;28;20394;-57
2022/03/03 00:27:50;;;;;;;1.48;0.63;;;;;;;;;;4129705;28;20062;-57
2022/03/03 00:29:52;;;;;;;0.40;0.30;;;;;;;;;;4130142;28;20054;-57
2022/03/03 00:31:53;;;;;;;0.35;0.22;;;;;;;;;;4127723;28;20124;-56
2022/03/03 00:33:55;;;;;;;0.50;0.30;;;;;;;;;;4126469;28;20112;-57
2022/03/03 00:35:56;;;;;;;0.75;0.30;;;;;;;;;;4129930;28;20161;-57
2022/03/03 00:37:57;;;;;;;0.43;0.30;;;;;;;;;;4130130;28;20058;-57
2022/03/03 00:39:58;;;;;;;0.30;0.30;;;;;;;;;;4128818;28;20125;-58
2022/03/03 00:42:00;;;;;;;0.32;0.30;;;;;;;;;;4129542;28;20077;-56
2022/03/03 00:44:01;;;;;;;0.80;0.28;;;;;;;;;;4128590;28;20066;-56
2022/03/03 00:46:02;;;;;;;0.40;0.30;;;;;;;;;;4129922;28;20058;-56
2022/03/03 00:48:04;;;;;;;0.82;0.30;;;;;;;;;;4112053;28;20047;-56
2022/03/03 00:50:05;;;;;;;0.20;0.20;;;;;;;;;;4129846;28;20153;-57
2022/03/03 00:52:07;;;;;;;0.40;0.20;;;;;;;;;;4129639;28;20109;-57
2022/03/03 00:54:08;;;;;;;0.50;0.30;;;;;;;;;;4112466;28;20061;-58
2022/03/03 00:56:09;;;;;;;0.43;0.38;;;;;;;;;;4129801;28;20109;-58
2022/03/03 00:58:10;;;;;;;0.57;0.30;;;;;;;;;;4112590;28;20431;-56
2022/03/03 01:00:12;;;;;;;0.20;0.20;;;;;;;;;;4129895;28;20529;-57
2022/03/03 01:02:13;;;;;;;0.57;0.40;;;;;;;;;;4128013;28;20413;-54
2022/03/03 01:04:14;;;;;;;0.47;0.40;;;;;;;;;;4129695;28;20443;-55
2022/03/03 01:06:15;;;;;;;0.40;0.20;;;;;;;;;;4129807;28;20108;-56
2022/03/03 01:08:16;;;;;;;0.50;0.30;;;;;;;;;;4129285;28;20113;-53
2022/03/03 01:10:17;;;;;;;0.43;0.22;;;;;;;;;;4129796;28;20134;-58
2022/03/03 01:12:19;;;;;;;0.70;0.30;;;;;;;;;;4144655;28;20050;-56
2022/03/03 01:14:22;;;;;;;0.60;0.20;;;;;;;;;;4145738;28;20111;-57
2022/03/03 01:16:24;;;;;;;0.55;0.30;;;;;;;;;;4145887;28;20127;-55
2022/03/03 01:18:25;;;;;;;0.20;0.20;;;;;;;;;;4145418;28;20443;-55
2022/03/03 01:20:27;;;;;;;0.20;0.20;;;;;;;;;;4145852;28;20442;-56
2022/03/03 01:22:28;;;;;;;0.40;0.30;;;;;;;;;;4147649;28;20053;-57
2022/03/03 01:24:31;;;;;;;0.43;0.25;;;;;;;;;;4149295;28;20061;-57
2022/03/03 01:26:32;;;;;;;0.35;0.20;;;;;;;;;;4148014;28;20307;-56
2022/03/03 01:28:33;;;;;;;0.10;0.10;;;;;;;;;;4131344;28;20124;-57
2022/03/03 01:30:35;;;;;;;0.28;0.25;;;;;;;;;;4148912;28;20061;-57
2022/03/03 01:32:36;;;;;;;0.20;0.15;;;;;;;;;;4148440;28;20413;-55
2022/03/03 01:34:38;;;;;;;0.43;0.30;;;;;;;;;;4147645;28;20057;-57
2022/03/03 01:36:39;;;;;;;0.38;0.20;;;;;;;;;;4148761;28;20111;-58
2022/03/03 01:38:40;;;;;;;0.68;0.20;;;;;;;;;;4149012;28;20062;-57
2022/03/03 01:40:41;;;;;;;0.32;0.20;;;;;;;;;;4131350;28;20439;-58
2022/03/03 01:42:42;;;;;;;0.20;0.20;;;;;;;;;;4148557;28;20100;-57
2022/03/03 01:44:45;;;;;;;0.38;0.30;;;;;;;;;;4149060;28;20096;-58
2022/03/03 01:46:51;;;;;;;0.38;0.32;;;;;;;;;;4130665;28;20128;-57
2022/03/03 01:48:52;;;;;;;0.25;0.20;;;;;;;;;;4147611;28;20127;-57
2022/03/03 01:50:53;;;;;;;0.35;0.20;;;;;;;;;;4148617;28;20640;-56
2022/03/03 01:52:54;;;;;;;0.25;0.20;;;;;;;;;;4130920;28;20058;-56
2022/03/03 01:54:55;;;;;;;0.77;0.20;;;;;;;;;;4148827;28;20073;-58
2022/03/03 01:56:57;;;;;;;0.10;0.10;;;;;;;;;;4147903;28;20061;-57
2022/03/03 01:58:58;;;;;;;0.70;0.40;;;;;;;;;;4130935;28;20101;-57
2022/03/03 02:01:00;;;;;;;1.10;0.32;;;;;;;;;;4131056;28;20574;-57
2022/03/03 02:03:01;;;;;;;0.90;0.22;;;;;;;;;;4130546;28;20141;-57
2022/03/03 02:05:03;;;;;;;0.73;0.30;;;;;;;;;;4131124;28;20113;-57
2022/03/03 02:07:04;;;;;;;0.63;0.25;;;;;;;;;;4132246;28;20113;-57
2022/03/03 02:09:14;;;;;;;0.38;0.30;;;;;;;;;;4132133;28;20081;-57
2022/03/03 02:11:15;;;;;;;0.20;0.20;;;;;;;;;;4130854;28;20595;-58
2022/03/03 02:13:17;;;;;;;0.47;0.20;;;;;;;;;;4132170;28;20054;-57
2022/03/03 02:15:19;;;;;;;0.20;0.20;;;;;;;;;;4130651;28;20065;-57
2022/03/03 02:17:20;;;;;;;0.20;0.20;;;;;;;;;;4131766;28;20160;-55
2022/03/03 02:19:21;;;;;;;0.35;0.30;;;;;;;;;;4130668;28;20510;-57
2022/03/03 02:21:23;;;;;;;0.52;0.30;;;;;;;;;;4132030;28;20458;-56
2022/03/03 02:23:25;;;;;;;0.47;0.17;;;;;;;;;;4131730;28;20054;-57
2022/03/03 02:25:26;;;;;;;0.20;0.20;;;;;;;;;;4114528;28;20058;-58
2022/03/03 02:27:27;;;;;;;0.32;0.20;;;;;;;;;;4131660;28;20058;-57
2022/03/03 02:29:29;;;;;;;0.73;0.35;;;;;;;;;;4132068;28;20105;-58
2022/03/03 02:31:30;;;;;;;0.68;0.22;;;;;;;;;;4132072;28;20058;-56
2022/03/03 02:33:31;;;;;;;0.20;0.20;;;;;;;;;;4130669;28;20498;-57
2022/03/03 02:35:33;;;;;;;0.40;0.30;;;;;;;;;;4132021;28;20065;-57
2022/03/03 02:37:35;;;;;;;0.20;0.20;;;;;;;;;;4131820;28;20054;-57
2022/03/03 02:39:36;;;;;;;0.55;0.28;;;;;;;;;;4131933;28;20128;-57
2022/03/03 02:41:37;;;;;;;0.43;0.20;;;;;;;;;;4131539;28;20066;-56
2022/03/03 02:43:39;;;;;;;0.88;0.30;;;;;;;;;;4131689;28;20082;-57
2022/03/03 02:45:40;;;;;;;0.30;0.22;;;;;;;;;;4131832;28;20117;-58
2022/03/03 02:47:42;;;;;;;0.32;0.20;;;;;;;;;;4140719;28;20116;-57
2022/03/03 02:49:43;;;;;;;0.40;0.20;;;;;;;;;;4147807;28;20088;-57
2022/03/03 02:51:45;;;;;;;0.52;0.10;;;;;;;;;;4147557;28;20108;-57
2022/03/03 02:53:46;;;;;;;0.28;0.28;;;;;;;;;;4147786;28;20409;-57
2022/03/03 02:55:47;;;;;;;0.70;0.30;;;;;;;;;;4130181;28;20457;-57
2022/03/03 02:57:55;;;;;;;0.88;0.20;;;;;;;;;;4146140;28;20152;-58
2022/03/03 02:59:56;;;;;;;0.20;0.20;;;;;;;;;;4147692;28;20558;-57
2022/03/03 03:01:58;;;;;;;0.80;0.30;;;;;;;;;;4145605;28;20100;-58
2022/03/03 03:03:59;;;;;;;0.28;0.22;;;;;;;;;;4147435;28;20192;-57
2022/03/03 03:06:00;;;;;;;0.65;0.40;;;;;;;;;;4147395;28;20112;-56
2022/03/03 03:08:01;;;;;;;0.22;0.15;;;;;;;;;;4115862;28;20113;-58
2022/03/03 03:10:03;;;;;;;0.20;0.20;;;;;;;;;;4131296;28;20118;-57
2022/03/03 03:12:04;;;;;;;0.35;0.20;;;;;;;;;;4131188;28;20125;-58
2022/03/03 03:14:06;;;;;;;0.13;0.10;;;;;;;;;;4145934;28;20453;-55
2022/03/03 03:16:08;;;;;;;1.23;0.30;;;;;;;;;;4131314;28;20108;-57
2022/03/03 03:18:09;;;;;;;0.70;0.40;;;;;;;;;;4130606;28;20446;-57
2022/03/03 03:20:11;;;;;;;0.20;0.20;;;;;;;;;;4131228;28;20062;-57
2022/03/03 03:22:12;;;;;;;0.30;0.20;;;;;;;;;;4145743;28;20089;-57
2022/03/03 03:24:14;;;;;;;0.38;0.22;;;;;;;;;;4146147;28;20057;-57
2022/03/03 03:26:15;;;;;;;0.40;0.20;;;;;;;;;;4130049;28;20096;-57
2022/03/03 03:28:18;;;;;;;0.22;0.10;;;;;;;;;;4129344;28;20477;-57
2022/03/03 03:30:19;;;;;;;0.30;0.20;;;;;;;;;;4129706;28;20581;-57
2022/03/03 03:32:20;;;;;;;0.30;0.30;;;;;;;;;;4130383;28;20553;-56
2022/03/03 03:34:21;;;;;;;0.20;0.20;;;;;;;;;;4130709;28;20120;-58
2022/03/03 03:36:22;;;;;;;0.35;0.25;;;;;;;;;;4130877;28;20553;-57
2022/03/03 03:38:24;;;;;;;0.25;0.20;;;;;;;;;;4130727;28;20085;-57
2022/03/03 03:40:25;;;;;;;0.20;0.20;;;;;;;;;;4145768;28;20061;-57
2022/03/03 03:42:26;;;;;;;1.27;0.20;;;;;;;;;;4129534;28;20104;-57
2022/03/03 03:44:27;;;;;;;1.20;0.20;;;;;;;;;;4129912;28;20266;-57
2022/03/03 03:46:28;;;;;;;0.63;0.38;;;;;;;;;;4130770;28;20061;-57
2022/03/03 03:48:29;;;;;;;0.30;0.22;;;;;;;;;;4130189;28;20058;-57
2022/03/03 03:50:30;;;;;;;0.30;0.20;;;;;;;;;;4145643;28;20125;-57
2022/03/03 03:52:31;;;;;;;0.45;0.32;;;;;;;;;;4130471;28;20059;-58
2022/03/03 03:54:33;;;;;;;0.30;0.30;;;;;;;;;;4145463;28;20054;-58
2022/03/03 03:56:34;;;;;;;0.10;0.10;;;;;;;;;;4130743;28;20112;-57
2022/03/03 03:58:35;;;;;;;0.57;0.30;;;;;;;;;;4130325;28;20074;-56
2022/03/03 04:00:36;;;;;;;0.40;0.22;;;;;;;;;;4130485;28;20133;-58
2022/03/03 04:02:37;;;;;;;0.30;0.20;;;;;;;;;;4129900;28;20498;-57
2022/03/03 04:04:38;;;;;;;0.38;0.20;;;;;;;;;;4130391;28;20134;-57
2022/03/03 04:06:40;;;;;;;0.10;0.10;;;;;;;;;;4128785;28;20515;-57
2022/03/03 04:08:41;;;;;;;0.40;0.30;;;;;;;;;;4130269;28;20121;-57
2022/03/03 04:10:42;;;;;;;0.70;0.28;;;;;;;;;;4130297;28;20070;-57
2022/03/03 04:12:44;;;;;;;0.30;0.30;;;;;;;;;;4130083;28;20065;-56
2022/03/03 04:14:44;;;;;;;0.35;0.28;;;;;;;;;;4130165;28;20422;-57
2022/03/03 04:16:46;;;;;;;0.55;0.25;;;;;;;;;;4129945;28;20058;-56
2022/03/03 04:18:47;;;;;;;0.20;0.20;;;;;;;;;;4130103;28;20074;-57
2022/03/03 04:20:48;;;;;;;0.50;0.22;;;;;;;;;;4130369;28;20054;-57
2022/03/03 04:22:49;;;;;;;0.38;0.20;;;;;;;;;;4130075;28;20096;-58
2022/03/03 04:24:50;;;;;;;0.60;0.25;;;;;;;;;;4144920;28;20107;-58
2022/03/03 04:26:52;;;;;;;0.35;0.15;;;;;;;;;;4129781;28;20159;-57
2022/03/03 04:28:53;;;;;;;0.20;0.20;;;;;;;;;;4130511;28;20130;-57
2022/03/03 04:30:54;;;;;;;0.20;0.10;;;;;;;;;;4130235;28;20062;-59
2022/03/03 04:32:55;;;;;;;0.10;0.10;;;;;;;;;;4129551;28;20116;-57
2022/03/03 04:34:56;;;;;;;0.22;0.10;;;;;;;;;;4128718;28;20443;-58
2022/03/03 04:36:57;;;;;;;0.15;0.15;;;;;;;;;;4129812;28;20120;-57
2022/03/03 04:38:58;;;;;;;0.35;0.20;;;;;;;;;;4129969;28;20498;-58
2022/03/03 04:40:59;;;;;;;0.40;0.20;;;;;;;;;;4129936;28;20050;-57
2022/03/03 04:43:01;;;;;;;0.20;0.20;;;;;;;;;;4129733;28;20062;-57
2022/03/03 04:45:03;;;;;;;0.52;0.22;;;;;;;;;;4129919;28;20058;-57
2022/03/03 04:47:04;;;;;;;1.08;0.50;;;;;;;;;;4129499;28;20058;-58
2022/03/03 04:49:05;;;;;;;0.50;0.20;;;;;;;;;;4129913;28;20589;-55
2022/03/03 04:51:06;;;;;;;0.55;0.28;;;;;;;;;;4130128;28;20203;-57
2022/03/03 04:53:07;;;;;;;0.63;0.20;;;;;;;;;;4129708;28;20502;-56
2022/03/03 04:55:09;;;;;;;0.60;0.30;;;;;;;;;;4129649;28;20414;-56
2022/03/03 04:57:10;;;;;;;0.25;0.20;;;;;;;;;;4128256;28;20157;-57
2022/03/03 04:59:11;;;;;;;0.60;0.20;;;;;;;;;;4129926;28;20108;-57
2022/03/03 05:01:13;;;;;;;0.82;0.20;;;;;;;;;;4129725;28;20085;-57
2022/03/03 05:03:14;;;;;;;0.63;0.10;;;;;;;;;;4129269;28;20549;-58
2022/03/03 05:05:15;;;;;;;0.13;0.13;;;;;;;;;;4128685;28;20107;-57
2022/03/03 05:07:16;;;;;;;0.85;0.30;;;;;;;;;;4129477;28;20129;-56
2022/03/03 05:09:17;;;;;;;0.40;0.20;;;;;;;;;;4129968;28;20101;-57
2022/03/03 05:11:19;;;;;;;0.20;0.20;;;;;;;;;;4129723;28;20446;-56
2022/03/03 05:13:20;;;;;;;0.60;0.30;;;;;;;;;;4129794;28;20050;-56
2022/03/03 05:15:21;;;;;;;0.65;0.15;;;;;;;;;;4129664;28;20409;-55
2022/03/03 05:17:23;;;;;;;0.75;0.28;;;;;;;;;;4127950;28;20054;-57
2022/03/03 05:19:24;;;;;;;0.20;0.10;;;;;;;;;;4129746;28;20384;-56
2022/03/03 05:21:25;;;;;;;0.32;0.20;;;;;;;;;;4129936;28;20058;-57
2022/03/03 05:23:26;;;;;;;0.10;0.10;;;;;;;;;;4129364;28;20101;-55
2022/03/03 05:25:29;;;;;;;0.30;0.17;;;;;;;;;;4129618;28;20108;-57
2022/03/03 05:27:30;;;;;;;0.28;0.20;;;;;;;;;;4129459;28;20114;-58
2022/03/03 05:29:31;;;;;;;0.40;0.20;;;;;;;;;;4112206;28;20055;-56
2022/03/03 05:31:32;;;;;;;0.30;0.20;;;;;;;;;;4129673;28;20196;-55
2022/03/03 05:33:34;;;;;;;0.63;0.25;;;;;;;;;;4127965;28;20054;-55
2022/03/03 05:35:35;;;;;;;0.30;0.20;;;;;;;;;;4129608;28;20069;-57
2022/03/03 05:37:37;;;;;;;0.65;0.20;;;;;;;;;;4129405;28;20050;-57
2022/03/03 05:39:38;;;;;;;0.17;0.10;;;;;;;;;;4128525;28;20055;-56
2022/03/03 05:41:39;;;;;;;0.30;0.30;;;;;;;;;;4129445;28;20509;-55
2022/03/03 05:43:41;;;;;;;0.20;0.20;;;;;;;;;;4129327;28;20062;-57
2022/03/03 05:45:42;;;;;;;0.43;0.17;;;;;;;;;;4129508;28;20540;-57
2022/03/03 05:47:45;;;;;;;0.10;0.10;;;;;;;;;;4128942;28;20447;-56
2022/03/03 05:49:50;;;;;;;0.22;0.20;;;;;;;;;;4129469;28;20124;-56
2022/03/03 05:51:51;;;;;;;0.20;0.10;;;;;;;;;;4129337;28;20112;-55
2022/03/03 05:53:52;;;;;;;0.35;0.20;;;;;;;;;;4129517;28;20454;-58
2022/03/03 05:55:56;;;;;;;0.15;0.10;;;;;;;;;;4129391;28;20054;-58
2022/03/03 05:57:59;;;;;;;0.40;0.20;;;;;;;;;;4111871;28;20194;-57
2022/03/03 06:00:12;;;;;;;0.25;0.20;;;;;;;;;;4128213;28;20050;-57
2022/03/03 06:02:18;;;;;;;0.20;0.20;;;;;;;;;;4125452;28;20060;-58
2022/03/03 06:04:23;;;;;;;0.17;0.10;;;;;;;;;;4127345;28;20070;-57
2022/03/03 06:06:34;;;;;;;0.15;0.10;;;;;;;;;;4127420;28;20491;-57
2022/03/03 06:08:41;;;;;;;0.25;0.20;;;;;;;;;;4129220;28;20065;-57
2022/03/03 06:10:46;;;;;;;1.95;0.30;;;;;;;;;;4128915;28;20442;-57
2022/03/03 06:12:48;;;;;;;0.10;0.10;;;;;;;;;;4112531;28;20550;-56
2022/03/03 06:14:54;;;;;;;0.57;0.10;;;;;;;;;;4130395;28;20065;-56
2022/03/03 06:16:57;;;;;;;0.30;0.20;;;;;;;;;;4096448;29;20067;-57
2022/03/03 06:18:58;;;;;;;0.52;0.22;;;;;;;;;;4129991;28;20058;-58
2022/03/03 06:21:00;;;;;;;0.17;0.10;;;;;;;;;;4129963;28;20058;-55
2022/03/03 06:23:01;;;;;;;0.20;0.20;;;;;;;;;;4129710;28;20486;-56
2022/03/03 06:25:03;;;;;;;0.10;0.10;;;;;;;;;;4128508;28;20149;-57
2022/03/03 06:27:05;;;;;;;0.10;0.10;;;;;;;;;;4125884;28;20415;-56
2022/03/03 06:29:06;;;;;;;0.52;0.28;;;;;;;;;;4113697;28;20506;-58
2022/03/03 06:31:07;;;;;;;0.30;0.17;;;;;;;;;;4112902;28;20058;-56
2022/03/03 06:33:09;;;;;;;1.15;0.20;;;;;;;;;;4112146;28;20423;-57
2022/03/03 06:35:11;;;;;;;0.38;0.20;;;;;;;;;;4112914;28;20546;-55
2022/03/03 06:37:12;;;;;;;0.63;0.20;;;;;;;;;;4095876;29;20383;-56
2022/03/03 06:39:13;;;;;;;0.50;0.20;;;;;;;;;;4112992;28;20439;-55
2022/03/03 06:41:14;;;;;;;0.85;0.20;;;;;;;;;;4096608;29;20059;-56
2022/03/03 06:43:16;;;;;;;0.55;0.30;;;;;;;;;;4114032;28;20059;-56
2022/03/03 06:45:18;;;;;;;0.40;0.35;;;;;;;;;;4113238;28;20069;-57
2022/03/03 06:47:19;;;;;;;0.20;0.20;;;;;;;;;;4108983;28;20495;-57
2022/03/03 06:49:20;;;;;;;0.60;0.30;;;;;;;;;;4108306;28;20062;-56
2022/03/03 06:51:22;;;;;;;0.38;0.13;;;;;;;;;;4112124;28;20198;-56
2022/03/03 06:53:30;;;;;;;1.17;0.40;;;;;;;;;;4098483;28;20118;-56
2022/03/03 06:55:31;;;;;;;0.63;0.28;;;;;;;;;;4113346;28;20066;-56
2022/03/03 06:57:35;;;;;;;0.10;0.10;;;;;;;;;;4112218;28;20058;-57
2022/03/03 06:59:38;;;;;;;0.20;0.20;;;;;;;;;;4102803;28;20061;-57
2022/03/03 07:01:40;;;;;;;0.70;0.20;;;;;;;;;;4107247;28;20161;-56
2022/03/03 07:03:42;;;;;;;0.35;0.20;;;;;;;;;;4086695;29;20087;-58
2022/03/03 07:05:43;;;;;;;0.57;0.30;;;;;;;;;;4121719;28;20062;-57
2022/03/03 07:07:45;;;;;;;0.40;0.30;;;;;;;;;;4094726;29;20063;-57
2022/03/03 07:09:47;;;;;;;0.50;0.25;;;;;;;;;;4126566;28;20054;-58
2022/03/03 07:11:49;;;;;;;1.95;0.40;;;;;;;;;;4101564;28;20065;-58
2022/03/03 07:13:50;;;;;;;0.32;0.10;;;;;;;;;;4106048;28;20057;-57
2022/03/03 07:16:02;;;;;;;1.00;0.30;;;;;;;;;;4113913;28;20588;-56
2022/03/03 07:18:11;;;;;;;0.52;0.20;;;;;;;;;;4111015;28;20419;-59
2022/03/03 07:21:00;;;;;;;2.05;0.35;;;;;;;;;;4094890;28;20113;-57
2022/03/03 07:23:02;;;;;;;0.30;0.20;;;;;;;;;;4058956;29;20102;-57
2022/03/03 07:25:09;;;;;;;1.98;0.10;;;;;;;;;;4091872;28;20066;-57
2022/03/03 07:27:17;;;;;;;0.10;0.10;;;;;;;;;;4110611;28;20065;-54
2022/03/03 07:29:18;;;;;;;0.20;0.10;;;;;;;;;;4109976;28;20436;-56
2022/03/03 07:31:25;;;;;;;1.55;0.17;;;;;;;;;;4110909;28;20407;-59
2022/03/03 07:33:53;;;;;;;0.40;0.20;;;;;;;;;;4114314;28;20055;-57
2022/03/03 07:35:56;;;;;;;0.73;0.22;;;;;;;;;;4114994;28;20065;-58
2022/03/03 07:38:02;;;;;;;0.03;0.03;;;;;;;;;;4124736;28;20054;-57
2022/03/03 07:40:06;;;;;;;0.28;0.17;;;;;;;;;;4121801;28;20133;-58
2022/03/03 07:42:18;;;;;;;0.40;0.15;;;;;;;;;;4125626;28;20065;-58
2022/03/03 07:44:19;;;;;;;0.60;0.20;;;;;;;;;;4111389;28;20062;-58
2022/03/03 07:46:21;;;;;;;0.70;0.20;;;;;;;;;;4111849;28;20054;-58
2022/03/03 07:48:24;;;;;;;0.20;0.15;;;;;;;;;;4104483;28;20047;-58
2022/03/03 07:50:27;;;;;;;0.45;0.20;;;;;;;;;;4111353;28;20117;-57
2022/03/03 07:52:28;;;;;;;1.20;0.20;;;;;;;;;;4111464;28;20121;-57
2022/03/03 07:54:30;;;;;;;0.20;0.10;;;;;;;;;;4110654;28;20069;-57
2022/03/03 07:56:40;;;;;;;0.52;0.20;;;;;;;;;;4110067;28;20117;-58
2022/03/03 07:58:43;;;;;;;0.40;0.15;;;;;;;;;;4109552;28;20128;-57
2022/03/03 08:00:50;;;;;;;0.52;0.20;;;;;;;;;;4113947;28;20400;-58
2022/03/03 08:02:53;;;;;;;0.30;0.20;;;;;;;;;;4113812;28;20101;-57
2022/03/03 08:04:54;;;;;;;0.47;0.20;;;;;;;;;;4093530;28;20067;-59
2022/03/03 08:07:08;;;;;;;0.95;0.20;;;;;;;;;;4100636;28;20067;-58
2022/03/03 08:09:09;;;;;;;0.77;0.28;;;;;;;;;;4111687;28;20050;-58
2022/03/03 08:11:11;;;;;;;0.85;0.22;;;;;;;;;;4098681;28;20059;-59
2022/03/03 08:13:14;;;;;;;1.38;0.20;;;;;;;;;;4112276;28;20559;-58
2022/03/03 08:15:15;;;;;;;0.80;0.10;;;;;;;;;;4113305;28;20106;-58
2022/03/03 08:17:18;;;;;;;0.40;0.10;;;;;;;;;;4110253;28;20057;-58
2022/03/03 08:19:19;;;;;;;0.38;0.10;;;;;;;;;;4108552;28;20058;-58
2022/03/03 08:21:21;;;;;;;0.28;0.13;;;;;;;;;;4091714;28;20143;-58
2022/03/03 08:23:25;;;;;;;0.20;0.10;;;;;;;;;;4102328;28;20105;-58
2022/03/03 08:25:27;;;;;;;0.20;0.20;;;;;;;;;;4109946;28;20051;-58
2022/03/03 08:27:28;;;;;;;0.93;0.20;;;;;;;;;;4109030;28;20062;-59
2022/03/03 08:29:29;;;;;;;0.22;0.20;;;;;;;;;;4129497;28;20458;-59
2022/03/03 08:31:48;;;;;;;1.55;0.20;;;;;;;;;;4125592;28;20065;-57
2022/03/03 08:33:53;;;;;;;0.40;0.10;;;;;;;;;;4112589;28;20357;-56
2022/03/03 08:35:56;;;;;;;0.30;0.17;;;;;;;;;;4127017;28;20499;-57
2022/03/03 08:38:02;;;;;;;1.30;0.22;;;;;;;;;;4128142;28;20124;-58
2022/03/03 08:40:06;;;;;;;0.90;0.30;;;;;;;;;;4125957;28;20065;-54
2022/03/03 08:42:13;;;;;;;0.75;0.30;;;;;;;;;;4125491;28;20058;-58
2022/03/03 08:44:16;;;;;;;0.45;0.20;;;;;;;;;;4130562;28;20252;-58
2022/03/03 08:46:23;;;;;;;0.85;0.30;;;;;;;;;;4129091;28;20085;-59
2022/03/03 08:48:26;;;;;;;0.50;0.30;;;;;;;;;;4118533;28;20061;-59
2022/03/03 08:50:28;;;;;;;1.98;0.20;;;;;;;;;;4135651;28;20069;-58
2022/03/03 08:52:29;;;;;;;1.85;0.20;;;;;;;;;;4122543;28;20061;-59
2022/03/03 08:54:30;;;;;;;0.30;0.30;;;;;;;;;;4116925;28;20108;-58
2022/03/03 08:56:32;;;;;;;0.17;0.10;;;;;;;;;;4128233;28;20054;-58
2022/03/03 08:58:34;;;;;;;0.60;0.30;;;;;;;;;;4124243;28;20054;-59
2022/03/03 09:00:36;;;;;;;1.58;0.60;;;;;;;;;;4128929;28;20053;-58
2022/03/03 09:02:37;;;;;;;0.45;0.38;;;;;;;;;;4114282;28;20505;-57
2022/03/03 09:04:39;;;;;;;0.32;0.20;;;;;;;;;;4127058;28;20066;-58
2022/03/03 09:06:40;;;;;;;0.55;0.28;;;;;;;;;;4127487;28;20420;-59
2022/03/03 09:08:41;;;;;;;1.55;0.20;;;;;;;;;;4113015;28;20408;-59
2022/03/03 09:10:42;;;;;;;2.47;0.30;;;;;;;;;;4142873;28;20464;-59
2022/03/03 09:12:44;;;;;;;0.38;0.30;;;;;;;;;;4125640;28;20758;-58
2022/03/03 09:14:45;;;;;;;0.82;0.40;;;;;;;;;;4099469;28;20065;-59
2022/03/03 09:16:46;;;;;;;0.15;0.10;;;;;;;;;;4126852;28;20078;-58
2022/03/03 09:18:48;;;;;;;1.55;0.20;;;;;;;;;;4113342;28;20113;-58
2022/03/03 09:20:49;;;;;;;0.45;0.30;;;;;;;;;;4126558;28;20375;-59
2022/03/03 09:22:50;;;;;;;0.52;0.30;;;;;;;;;;4126444;28;20061;-57
2022/03/03 09:24:53;;;;;;;1.52;0.20;;;;;;;;;;4128360;28;20390;-57
2022/03/03 09:26:54;;;;;;;1.85;0.32;;;;;;;;;;4128630;28;20120;-57
2022/03/03 09:28:55;;;;;;;0.45;0.20;;;;;;;;;;4127962;28;20411;-57
2022/03/03 09:30:57;;;;;;;0.40;0.30;;;;;;;;;;4114589;28;20101;-58
2022/03/03 09:32:58;;;;;;;0.43;0.20;;;;;;;;;;4105263;28;20138;-57
2022/03/03 09:34:59;;;;;;;0.28;0.17;;;;;;;;;;4126520;28;20112;-60
2022/03/03 09:37:01;;;;;;;0.68;0.20;;;;;;;;;;4126627;28;20054;-59
2022/03/03 09:39:03;;;;;;;0.10;0.10;;;;;;;;;;4100541;28;20068;-59
2022/03/03 09:41:04;;;;;;;1.23;0.20;;;;;;;;;;4110110;28;20141;-58
2022/03/03 09:43:07;;;;;;;0.47;0.30;;;;;;;;;;4142202;28;20098;-58
2022/03/03 09:45:10;;;;;;;0.82;0.25;;;;;;;;;;4131728;28;20062;-59
2022/03/03 09:47:11;;;;;;;0.20;0.10;;;;;;;;;;4127961;28;20054;-58
2022/03/03 09:49:12;;;;;;;1.10;0.20;;;;;;;;;;4134122;28;20058;-58
2022/03/03 09:51:14;;;;;;;0.75;0.38;;;;;;;;;;4123703;28;20066;-60
2022/03/03 09:53:17;;;;;;;0.63;0.22;;;;;;;;;;4114403;28;20070;-59
2022/03/03 09:55:18;;;;;;;0.95;0.20;;;;;;;;;;4114333;28;20221;-57
2022/03/03 09:57:20;;;;;;;0.28;0.15;;;;;;;;;;4132433;28;20116;-58
2022/03/03 09:59:21;;;;;;;0.30;0.10;;;;;;;;;;4143860;28;20065;-59
2022/03/03 10:01:27;;;;;;;0.22;0.15;;;;;;;;;;4126569;28;20054;-58
2022/03/03 10:03:33;;;;;;;0.40;0.20;;;;;;;;;;4113698;28;20521;-59
2022/03/03 10:05:35;;;;;;;0.95;0.20;;;;;;;;;;4125025;28;20058;-59
2022/03/03 10:07:37;;;;;;;1.20;0.22;;;;;;;;;;4127659;28;20065;-58
2022/03/03 10:12:02;;;;;;;1.08;0.38;;;;;;;;;;4128790;28;20417;-57
2022/03/03 10:14:03;;;;;;;2.10;0.20;;;;;;;;;;4132803;28;20054;-59
2022/03/03 10:16:04;;;;;;;0.50;0.20;;;;;;;;;;4128597;28;20070;-58
2022/03/03 10:18:13;;;;;;;0.90;0.25;;;;;;;;;;4128060;28;20524;-57
2022/03/03 10:20:14;;;;;;;0.60;0.28;;;;;;;;;;4133132;28;20108;-58
2022/03/03 10:22:16;;;;;;;1.05;0.30;;;;;;;;;;4123302;28;20108;-59
2022/03/03 10:24:26;;;;;;;0.10;0.10;;;;;;;;;;4153577;28;20045;-58
2022/03/03 10:26:35;;;;;;;0.35;0.20;;;;;;;;;;4133007;28;20548;-56
2022/03/03 10:28:37;;;;;;;0.50;0.17;;;;;;;;;;4091278;28;20051;-57
2022/03/03 10:31:00;;;;;;;0.55;0.10;;;;;;;;;;4090840;29;20491;-58
2022/03/03 10:33:14;;;;;;;0.75;0.30;;;;;;;;;;4108084;28;20077;-58
2022/03/03 10:35:17;;;;;;;0.15;0.10;;;;;;;;;;4115392;28;20054;-58
2022/03/03 10:37:21;;;;;;;0.30;0.10;;;;;;;;;;4113343;28;20061;-58
2022/03/03 10:39:22;;;;;;;0.10;0.10;;;;;;;;;;4118029;28;20113;-57
2022/03/03 10:41:35;;;;;;;0.10;0.10;;;;;;;;;;4115054;28;20113;-59
2022/03/03 10:43:46;;;;;;;0.70;0.20;;;;;;;;;;4114659;28;20043;-58
2022/03/03 10:45:59;;;;;;;0.45;0.20;;;;;;;;;;4114113;28;20478;-58
2022/03/03 10:48:04;;;;;;;0.80;0.10;;;;;;;;;;4113048;28;20059;-58
2022/03/03 10:50:05;;;;;;;0.25;0.10;;;;;;;;;;4117710;28;20055;-58
2022/03/03 10:52:26;;;;;;;0.85;0.20;;;;;;;;;;4112340;28;20130;-59
2022/03/03 10:54:27;;;;;;;0.82;0.20;;;;;;;;;;4114433;28;20062;-58
2022/03/03 10:56:28;;;;;;;0.60;0.20;;;;;;;;;;4112727;28;20498;-57
2022/03/03 10:58:48;;;;;;;0.80;0.10;;;;;;;;;;4111405;28;20049;-59
2022/03/03 11:00:49;;;;;;;0.10;0.10;;;;;;;;;;4113333;28;20440;-58
2022/03/03 11:02:53;;;;;;;0.40;0.13;;;;;;;;;;4112381;28;20432;-59
2022/03/03 11:04:55;;;;;;;0.20;0.03;;;;;;;;;;4112937;28;20075;-59
2022/03/03 11:06:56;;;;;;;0.20;0.10;;;;;;;;;;4091792;28;20106;-59
2022/03/03 11:08:59;;;;;;;1.95;0.20;;;;;;;;;;4112696;28;20392;-58
2022/03/03 11:11:01;;;;;;;0.13;0.10;;;;;;;;;;4114920;28;20318;-59
2022/03/03 11:13:02;;;;;;;0.55;0.10;;;;;;;;;;4125392;28;20051;-60
2022/03/03 11:15:04;;;;;;;0.20;0.10;;;;;;;;;;4114048;28;20066;-56
2022/03/03 11:17:06;;;;;;;0.28;0.13;;;;;;;;;;4108537;28;20188;-57
2022/03/03 11:19:09;;;;;;;0.85;0.20;;;;;;;;;;4105518;28;20054;-58
2022/03/03 11:21:12;;;;;;;0.20;0.10;;;;;;;;;;4093213;28;20055;-58
2022/03/03 11:23:14;;;;;;;0.85;0.13;;;;;;;;;;4091598;28;20242;-58
2022/03/03 11:25:19;;;;;;;0.32;0.13;;;;;;;;;;4111024;28;20568;-57
2022/03/03 11:27:20;;;;;;;0.43;0.22;;;;;;;;;;4112187;28;20340;-57
2022/03/03 11:29:21;;;;;;;1.15;0.10;;;;;;;;;;4113085;28;20219;-58
2022/03/03 11:31:33;;;;;;;0.20;0.20;;;;;;;;;;4121301;28;20059;-57
2022/03/03 11:33:41;;;;;;;0.20;0.10;;;;;;;;;;4111686;28;20120;-56
2022/03/03 11:35:49;;;;;;;0.20;0.10;;;;;;;;;;4115539;28;20063;-56
2022/03/03 11:37:51;;;;;;;0.10;0.10;;;;;;;;;;4115697;28;20485;-56
2022/03/03 11:39:57;;;;;;;0.30;0.10;;;;;;;;;;4110106;28;20069;-58
2022/03/03 11:42:28;;;;;;;0.57;0.10;;;;;;;;;;4117351;28;20124;-58
2022/03/03 11:44:31;;;;;;;0.10;0.10;;;;;;;;;;4094565;28;20073;-58
2022/03/03 11:46:48;;;;;;;0.50;0.17;;;;;;;;;;4112619;28;20104;-57
2022/03/03 11:48:49;;;;;;;0.10;0.10;;;;;;;;;;4096538;28;20055;-57
2022/03/03 11:50:53;;;;;;;0.80;0.10;;;;;;;;;;4112366;28;20478;-60
2022/03/03 11:52:57;;;;;;;0.32;0.10;;;;;;;;;;4113377;28;20101;-57
2022/03/03 11:55:00;;;;;;;0.20;0.00;;;;;;;;;;4112008;28;20487;-56
2022/03/03 11:57:04;;;;;;;0.15;0.10;;;;;;;;;;4107885;28;20098;-56
2022/03/03 11:59:12;;;;;;;0.40;0.10;;;;;;;;;;4113468;28;20100;-57
2022/03/03 12:01:14;;;;;;;0.17;0.10;;;;;;;;;;4106413;28;20125;-55
2022/03/03 12:03:17;;;;;;;1.65;0.20;;;;;;;;;;4111109;28;20663;-58
2022/03/03 12:05:27;;;;;;;0.50;0.10;;;;;;;;;;4113423;28;20061;-60
2022/03/03 12:07:29;;;;;;;0.25;0.17;;;;;;;;;;4108608;28;20401;-58
2022/03/03 12:09:33;;;;;;;1.55;0.10;;;;;;;;;;4108648;28;20467;-58
2022/03/03 12:11:37;;;;;;;0.30;0.20;;;;;;;;;;4111892;28;20412;-57
2022/03/03 12:13:38;;;;;;;0.45;0.10;;;;;;;;;;4096819;28;20047;-57
2022/03/03 12:15:40;;;;;;;0.20;0.05;;;;;;;;;;4111732;28;20475;-57
2022/03/03 12:17:44;;;;;;;0.00;0.00;;;;;;;;;;4121328;28;20525;-58
2022/03/03 12:19:46;;;;;;;0.30;0.05;;;;;;;;;;4113129;28;20171;-58